sensor_id;sensor_type;location;lat;lon;timestamp;P1;durP1;ratioP1;P2;durP2;ratioP2
11531;SDS011;5822;51.000;5.874;2023-02-15T00:01:31;29.70;;;27.40;;
11531;SDS011;5822;51.000;5.874;2023-02-15T00:03:58;29.58;;;27.40;;
11531;SDS011;5822;51.000;5.874;2023-02-15T00:06:24;29.00;;;26.77;;
11531;SDS011;5822;51.000;5.874;2023-02-15T00:08:50;29.90;;;27.70;;
11531;SDS011;5822;51.000;5.874;2023-02-15T00:11:16;30.07;;;27.87;;
11531;SDS011;5822;51.000;5.874;2023-02-15T00:16:33;29.30;;;27.10;;
11531;SDS011;5822;51.000;5.874;2023-02-15T00:19:00;29.30;;;27.10;;
11531;SDS011;5822;51.000;5.874;2023-02-15T00:21:29;29.10;;;26.90;;
11531;SDS011;5822;51.000;5.874;2023-02-15T00:23:57;29.23;;;27.02;;
11531;SDS011;5822;51.000;5.874;2023-02-15T00:26:23;29.80;;;27.60;;
11531;SDS011;5822;51.000;5.874;2023-02-15T00:28:49;28.08;;;26.05;;
11531;SDS011;5822;51.000;5.874;2023-02-15T00:31:15;29.33;;;27.23;;
11531;SDS011;5822;51.000;5.874;2023-02-15T00:33:41;28.90;;;26.80;;
11531;SDS011;5822;51.000;5.874;2023-02-15T00:36:07;29.58;;;27.38;;
11531;SDS011;5822;51.000;5.874;2023-02-15T00:38:34;29.48;;;27.30;;
11531;SDS011;5822;51.000;5.874;2023-02-15T00:41:01;29.95;;;27.75;;
11531;SDS011;5822;51.000;5.874;2023-02-15T00:43:29;29.53;;;27.33;;
11531;SDS011;5822;51.000;5.874;2023-02-15T00:45:56;31.50;;;29.15;;
11531;SDS011;5822;51.000;5.874;2023-02-15T00:48:22;30.50;;;28.30;;
11531;SDS011;5822;51.000;5.874;2023-02-15T00:50:52;29.30;;;27.10;;
11531;SDS011;5822;51.000;5.874;2023-02-15T00:53:19;30.08;;;27.88;;
11531;SDS011;5822;51.000;5.874;2023-02-15T00:55:45;29.88;;;27.67;;
11531;SDS011;5822;51.000;5.874;2023-02-15T00:58:12;29.83;;;27.63;;
11531;SDS011;5822;51.000;5.874;2023-02-15T01:00:38;28.75;;;26.63;;
11531;SDS011;5822;51.000;5.874;2023-02-15T01:03:06;29.52;;;27.33;;
11531;SDS011;5822;51.000;5.874;2023-02-15T01:05:31;30.03;;;27.83;;
11531;SDS011;5822;51.000;5.874;2023-02-15T01:07:57;30.10;;;27.80;;
11531;SDS011;5822;51.000;5.874;2023-02-15T01:10:24;27.95;;;25.85;;
11531;SDS011;5822;51.000;5.874;2023-02-15T01:12:50;29.20;;;27.00;;
11531;SDS011;5822;51.000;5.874;2023-02-15T01:15:16;29.15;;;26.95;;
11531;SDS011;5822;51.000;5.874;2023-02-15T01:17:42;32.83;;;30.45;;
11531;SDS011;5822;51.000;5.874;2023-02-15T01:20:10;31.90;;;29.60;;
11531;SDS011;5822;51.000;5.874;2023-02-15T01:22:36;30.23;;;28.03;;
11531;SDS011;5822;51.000;5.874;2023-02-15T01:25:02;31.10;;;28.83;;
11531;SDS011;5822;51.000;5.874;2023-02-15T01:27:28;27.38;;;25.38;;
11531;SDS011;5822;51.000;5.874;2023-02-15T01:29:55;27.92;;;25.92;;
11531;SDS011;5822;51.000;5.874;2023-02-15T01:32:21;28.80;;;26.60;;
11531;SDS011;5822;51.000;5.874;2023-02-15T01:34:47;28.45;;;26.30;;
11531;SDS011;5822;51.000;5.874;2023-02-15T01:37:13;29.65;;;27.35;;
11531;SDS011;5822;51.000;5.874;2023-02-15T01:39:39;28.57;;;26.40;;
11531;SDS011;5822;51.000;5.874;2023-02-15T01:42:04;28.57;;;26.40;;
11531;SDS011;5822;51.000;5.874;2023-02-15T01:47:11;29.48;;;27.17;;
11531;SDS011;5822;51.000;5.874;2023-02-15T01:49:40;29.60;;;27.40;;
11531;SDS011;5822;51.000;5.874;2023-02-15T01:52:09;29.20;;;27.00;;
11531;SDS011;5822;51.000;5.874;2023-02-15T01:54:40;29.73;;;27.50;;
11531;SDS011;5822;51.000;5.874;2023-02-15T01:57:12;28.38;;;26.27;;
11531;SDS011;5822;51.000;5.874;2023-02-15T01:59:42;29.50;;;27.30;;
11531;SDS011;5822;51.000;5.874;2023-02-15T02:02:11;28.77;;;26.67;;
11531;SDS011;5822;51.000;5.874;2023-02-15T02:07:39;29.27;;;27.08;;
11531;SDS011;5822;51.000;5.874;2023-02-15T02:10:07;29.73;;;27.52;;
11531;SDS011;5822;51.000;5.874;2023-02-15T02:12:36;29.23;;;27.02;;
11531;SDS011;5822;51.000;5.874;2023-02-15T02:15:03;30.25;;;27.90;;
11531;SDS011;5822;51.000;5.874;2023-02-15T02:34:30;29.00;;;26.80;;
11531;SDS011;5822;51.000;5.874;2023-02-15T02:39:49;30.70;;;28.40;;
11531;SDS011;5822;51.000;5.874;2023-02-15T02:42:43;28.60;;;26.50;;
11531;SDS011;5822;51.000;5.874;2023-02-15T02:45:25;28.73;;;26.55;;
11531;SDS011;5822;51.000;5.874;2023-02-15T02:48:42;29.55;;;27.35;;
11531;SDS011;5822;51.000;5.874;2023-02-15T02:50:50;29.83;;;27.52;;
11531;SDS011;5822;51.000;5.874;2023-02-15T02:53:16;29.90;;;27.60;;
11531;SDS011;5822;51.000;5.874;2023-02-15T02:58:27;29.55;;;27.25;;
11531;SDS011;5822;51.000;5.874;2023-02-15T03:01:03;30.45;;;28.05;;
11531;SDS011;5822;51.000;5.874;2023-02-15T03:03:44;29.13;;;26.92;;
11531;SDS011;5822;51.000;5.874;2023-02-15T03:09:33;30.83;;;28.42;;
11531;SDS011;5822;51.000;5.874;2023-02-15T03:12:19;30.60;;;28.30;;
11531;SDS011;5822;51.000;5.874;2023-02-15T03:14:53;31.73;;;29.33;;
11531;SDS011;5822;51.000;5.874;2023-02-15T03:17:22;31.65;;;29.25;;
11531;SDS011;5822;51.000;5.874;2023-02-15T03:19:51;29.92;;;27.73;;
11531;SDS011;5822;51.000;5.874;2023-02-15T03:22:30;29.17;;;26.97;;
11531;SDS011;5822;51.000;5.874;2023-02-15T03:25:13;29.98;;;27.77;;
11531;SDS011;5822;51.000;5.874;2023-02-15T03:27:47;30.92;;;28.52;;
11531;SDS011;5822;51.000;5.874;2023-02-15T03:30:16;30.77;;;28.47;;
11531;SDS011;5822;51.000;5.874;2023-02-15T03:32:45;30.27;;;27.98;;
11531;SDS011;5822;51.000;5.874;2023-02-15T03:35:13;30.25;;;27.95;;
11531;SDS011;5822;51.000;5.874;2023-02-15T03:37:49;30.02;;;27.73;;
11531;SDS011;5822;51.000;5.874;2023-02-15T03:43:27;30.40;;;28.02;;
11531;SDS011;5822;51.000;5.874;2023-02-15T03:46:23;30.23;;;27.90;;
11531;SDS011;5822;51.000;5.874;2023-02-15T03:49:21;30.40;;;28.02;;
11531;SDS011;5822;51.000;5.874;2023-02-15T03:51:59;30.23;;;27.92;;
11531;SDS011;5822;51.000;5.874;2023-02-15T03:54:28;31.15;;;28.80;;
11531;SDS011;5822;51.000;5.874;2023-02-15T03:57:34;31.17;;;28.80;;
11531;SDS011;5822;51.000;5.874;2023-02-15T04:00:37;32.03;;;29.52;;
11531;SDS011;5822;51.000;5.874;2023-02-15T04:06:13;31.38;;;28.98;;
11531;SDS011;5822;51.000;5.874;2023-02-15T04:08:39;30.20;;;27.85;;
11531;SDS011;5822;51.000;5.874;2023-02-15T04:11:23;28.98;;;26.77;;
11531;SDS011;5822;51.000;5.874;2023-02-15T04:13:49;29.45;;;27.25;;
11531;SDS011;5822;51.000;5.874;2023-02-15T04:16:21;29.55;;;27.35;;
11531;SDS011;5822;51.000;5.874;2023-02-15T04:18:50;30.02;;;27.73;;
11531;SDS011;5822;51.000;5.874;2023-02-15T04:21:34;29.95;;;27.65;;
11531;SDS011;5822;51.000;5.874;2023-02-15T04:24:18;30.65;;;28.25;;
11531;SDS011;5822;51.000;5.874;2023-02-15T04:27:02;29.80;;;27.50;;
11531;SDS011;5822;51.000;5.874;2023-02-15T04:29:29;30.65;;;28.25;;
11531;SDS011;5822;51.000;5.874;2023-02-15T04:31:56;30.92;;;28.60;;
11531;SDS011;5822;51.000;5.874;2023-02-15T04:34:23;29.73;;;27.52;;
11531;SDS011;5822;51.000;5.874;2023-02-15T04:36:49;30.70;;;28.20;;
11531;SDS011;5822;51.000;5.874;2023-02-15T04:39:15;31.20;;;28.80;;
11531;SDS011;5822;51.000;5.874;2023-02-15T04:41:42;31.05;;;28.70;;
11531;SDS011;5822;51.000;5.874;2023-02-15T04:44:08;30.90;;;28.60;;
11531;SDS011;5822;51.000;5.874;2023-02-15T04:46:34;30.57;;;28.27;;
11531;SDS011;5822;51.000;5.874;2023-02-15T04:49:00;30.33;;;28.08;;
11531;SDS011;5822;51.000;5.874;2023-02-15T04:51:26;29.05;;;26.88;;
11531;SDS011;5822;51.000;5.874;2023-02-15T04:53:51;28.97;;;26.77;;
11531;SDS011;5822;51.000;5.874;2023-02-15T04:56:18;29.25;;;27.02;;
11531;SDS011;5822;51.000;5.874;2023-02-15T04:58:44;29.42;;;27.13;;
11531;SDS011;5822;51.000;5.874;2023-02-15T05:01:10;30.15;;;27.77;;
11531;SDS011;5822;51.000;5.874;2023-02-15T05:03:36;30.90;;;28.50;;
11531;SDS011;5822;51.000;5.874;2023-02-15T05:06:02;29.85;;;27.55;;
11531;SDS011;5822;51.000;5.874;2023-02-15T05:08:28;30.52;;;28.20;;
11531;SDS011;5822;51.000;5.874;2023-02-15T05:10:55;30.83;;;28.48;;
11531;SDS011;5822;51.000;5.874;2023-02-15T05:13:21;30.92;;;28.55;;
11531;SDS011;5822;51.000;5.874;2023-02-15T05:15:51;30.50;;;28.10;;
11531;SDS011;5822;51.000;5.874;2023-02-15T05:18:18;31.85;;;29.45;;
11531;SDS011;5822;51.000;5.874;2023-02-15T05:20:45;31.88;;;29.27;;
11531;SDS011;5822;51.000;5.874;2023-02-15T05:23:11;32.03;;;29.52;;
11531;SDS011;5822;51.000;5.874;2023-02-15T05:25:37;30.83;;;28.45;;
11531;SDS011;5822;51.000;5.874;2023-02-15T05:28:26;30.92;;;28.52;;
11531;SDS011;5822;51.000;5.874;2023-02-15T05:31:01;30.50;;;28.10;;
11531;SDS011;5822;51.000;5.874;2023-02-15T05:33:42;32.97;;;30.38;;
11531;SDS011;5822;51.000;5.874;2023-02-15T05:36:08;29.67;;;27.38;;
11531;SDS011;5822;51.000;5.874;2023-02-15T05:38:34;29.23;;;26.92;;
11531;SDS011;5822;51.000;5.874;2023-02-15T05:41:02;30.02;;;27.65;;
11531;SDS011;5822;51.000;5.874;2023-02-15T05:43:29;29.57;;;27.30;;
11531;SDS011;5822;51.000;5.874;2023-02-15T05:45:55;29.67;;;27.38;;
11531;SDS011;5822;51.000;5.874;2023-02-15T05:48:22;30.83;;;28.37;;
11531;SDS011;5822;51.000;5.874;2023-02-15T05:51:02;30.67;;;28.27;;
11531;SDS011;5822;51.000;5.874;2023-02-15T05:53:46;31.48;;;28.88;;
11531;SDS011;5822;51.000;5.874;2023-02-15T05:56:11;30.30;;;28.00;;
11531;SDS011;5822;51.000;5.874;2023-02-15T05:58:38;30.63;;;28.23;;
11531;SDS011;5822;51.000;5.874;2023-02-15T06:01:12;32.33;;;29.77;;
11531;SDS011;5822;51.000;5.874;2023-02-15T06:03:37;32.13;;;29.63;;
11531;SDS011;5822;51.000;5.874;2023-02-15T06:06:04;32.22;;;29.63;;
11531;SDS011;5822;51.000;5.874;2023-02-15T06:08:30;32.00;;;29.50;;
11531;SDS011;5822;51.000;5.874;2023-02-15T06:10:56;32.22;;;29.73;;
11531;SDS011;5822;51.000;5.874;2023-02-15T06:13:22;31.83;;;29.30;;
11531;SDS011;5822;51.000;5.874;2023-02-15T06:15:47;31.57;;;29.17;;
11531;SDS011;5822;51.000;5.874;2023-02-15T06:18:13;28.63;;;26.43;;
11531;SDS011;5822;51.000;5.874;2023-02-15T06:20:39;29.47;;;27.17;;
11531;SDS011;5822;51.000;5.874;2023-02-15T06:23:04;29.20;;;26.90;;
11531;SDS011;5822;51.000;5.874;2023-02-15T06:25:30;29.83;;;27.52;;
11531;SDS011;5822;51.000;5.874;2023-02-15T06:27:55;31.15;;;28.75;;
11531;SDS011;5822;51.000;5.874;2023-02-15T06:30:21;31.70;;;29.10;;
11531;SDS011;5822;51.000;5.874;2023-02-15T06:32:47;31.27;;;28.67;;
11531;SDS011;5822;51.000;5.874;2023-02-15T06:35:12;32.45;;;29.85;;
11531;SDS011;5822;51.000;5.874;2023-02-15T06:37:38;30.92;;;28.42;;
11531;SDS011;5822;51.000;5.874;2023-02-15T06:40:04;30.63;;;28.23;;
11531;SDS011;5822;51.000;5.874;2023-02-15T06:42:30;31.63;;;29.13;;
11531;SDS011;5822;51.000;5.874;2023-02-15T06:44:55;32.10;;;29.60;;
11531;SDS011;5822;51.000;5.874;2023-02-15T06:47:21;32.33;;;29.83;;
11531;SDS011;5822;51.000;5.874;2023-02-15T06:49:47;32.13;;;29.63;;
11531;SDS011;5822;51.000;5.874;2023-02-15T06:52:12;31.60;;;29.20;;
11531;SDS011;5822;51.000;5.874;2023-02-15T06:54:38;30.92;;;28.52;;
11531;SDS011;5822;51.000;5.874;2023-02-15T06:57:03;29.75;;;27.45;;
11531;SDS011;5822;51.000;5.874;2023-02-15T06:59:29;30.58;;;28.17;;
11531;SDS011;5822;51.000;5.874;2023-02-15T07:01:55;31.42;;;29.02;;
11531;SDS011;5822;51.000;5.874;2023-02-15T07:04:20;30.70;;;28.30;;
11531;SDS011;5822;51.000;5.874;2023-02-15T07:06:46;31.70;;;29.25;;
11531;SDS011;5822;51.000;5.874;2023-02-15T07:09:12;43.90;;;41.00;;
11531;SDS011;5822;51.000;5.874;2023-02-15T07:11:38;51.77;;;48.47;;
11531;SDS011;5822;51.000;5.874;2023-02-15T07:14:22;57.05;;;53.55;;
11531;SDS011;5822;51.000;5.874;2023-02-15T07:16:47;64.30;;;60.50;;
11531;SDS011;5822;51.000;5.874;2023-02-15T07:19:13;65.90;;;62.03;;
11531;SDS011;5822;51.000;5.874;2023-02-15T07:21:39;65.43;;;61.72;;
11531;SDS011;5822;51.000;5.874;2023-02-15T07:24:04;60.00;;;56.50;;
11531;SDS011;5822;51.000;5.874;2023-02-15T07:26:31;39.38;;;36.70;;
11531;SDS011;5822;51.000;5.874;2023-02-15T07:28:57;38.10;;;35.50;;
11531;SDS011;5822;51.000;5.874;2023-02-15T07:31:22;39.45;;;36.75;;
11531;SDS011;5822;51.000;5.874;2023-02-15T07:33:48;47.33;;;44.23;;
11531;SDS011;5822;51.000;5.874;2023-02-15T07:36:14;53.33;;;50.13;;
11531;SDS011;5822;51.000;5.874;2023-02-15T07:38:40;54.00;;;50.80;;
11531;SDS011;5822;51.000;5.874;2023-02-15T07:41:10;52.75;;;49.55;;
11531;SDS011;5822;51.000;5.874;2023-02-15T07:43:39;62.05;;;58.45;;
11531;SDS011;5822;51.000;5.874;2023-02-15T07:46:08;62.63;;;59.05;;
11531;SDS011;5822;51.000;5.874;2023-02-15T07:48:36;66.82;;;62.92;;
11531;SDS011;5822;51.000;5.874;2023-02-15T07:51:03;72.03;;;67.93;;
11531;SDS011;5822;51.000;5.874;2023-02-15T07:53:30;63.72;;;60.03;;
11531;SDS011;5822;51.000;5.874;2023-02-15T07:56:00;59.22;;;55.72;;
11531;SDS011;5822;51.000;5.874;2023-02-15T07:58:26;67.38;;;63.63;;
11531;SDS011;5822;51.000;5.874;2023-02-15T08:01:11;65.83;;;62.13;;
11531;SDS011;5822;51.000;5.874;2023-02-15T08:03:37;58.47;;;55.05;;
11531;SDS011;5822;51.000;5.874;2023-02-15T08:06:03;53.43;;;50.33;;
11531;SDS011;5822;51.000;5.874;2023-02-15T08:08:29;57.50;;;54.20;;
11531;SDS011;5822;51.000;5.874;2023-02-15T08:11:37;51.55;;;48.45;;
11531;SDS011;5822;51.000;5.874;2023-02-15T08:14:00;52.33;;;49.13;;
11531;SDS011;5822;51.000;5.874;2023-02-15T08:19:07;54.42;;;51.22;;
11531;SDS011;5822;51.000;5.874;2023-02-15T08:21:36;60.90;;;57.50;;
11531;SDS011;5822;51.000;5.874;2023-02-15T08:24:03;51.75;;;48.70;;
11531;SDS011;5822;51.000;5.874;2023-02-15T08:26:30;56.10;;;52.90;;
11531;SDS011;5822;51.000;5.874;2023-02-15T08:28:57;61.70;;;58.30;;
11531;SDS011;5822;51.000;5.874;2023-02-15T08:31:23;60.08;;;56.67;;
11531;SDS011;5822;51.000;5.874;2023-02-15T08:33:50;71.32;;;67.40;;
11531;SDS011;5822;51.000;5.874;2023-02-15T08:36:19;66.72;;;62.92;;
11531;SDS011;5822;51.000;5.874;2023-02-15T08:38:46;67.07;;;63.38;;
11531;SDS011;5822;51.000;5.874;2023-02-15T08:41:17;58.00;;;54.72;;
11531;SDS011;5822;51.000;5.874;2023-02-15T08:43:44;55.65;;;52.35;;
11531;SDS011;5822;51.000;5.874;2023-02-15T08:46:11;58.97;;;55.58;;
11531;SDS011;5822;51.000;5.874;2023-02-15T08:48:37;51.53;;;48.53;;
11531;SDS011;5822;51.000;5.874;2023-02-15T08:51:04;51.05;;;48.08;;
11531;SDS011;5822;51.000;5.874;2023-02-15T08:53:40;50.65;;;47.80;;
11531;SDS011;5822;51.000;5.874;2023-02-15T08:56:08;49.22;;;46.33;;
11531;SDS011;5822;51.000;5.874;2023-02-15T08:58:34;41.22;;;38.55;;
11531;SDS011;5822;51.000;5.874;2023-02-15T09:01:00;47.58;;;44.67;;
11531;SDS011;5822;51.000;5.874;2023-02-15T09:03:32;56.40;;;53.28;;
11531;SDS011;5822;51.000;5.874;2023-02-15T09:05:59;65.35;;;61.70;;
11531;SDS011;5822;51.000;5.874;2023-02-15T09:08:26;66.53;;;62.85;;
11531;SDS011;5822;51.000;5.874;2023-02-15T09:10:52;73.27;;;69.37;;
11531;SDS011;5822;51.000;5.874;2023-02-15T09:13:18;66.25;;;62.65;;
11531;SDS011;5822;51.000;5.874;2023-02-15T09:15:45;68.95;;;65.25;;
11531;SDS011;5822;51.000;5.874;2023-02-15T09:18:11;68.38;;;64.78;;
11531;SDS011;5822;51.000;5.874;2023-02-15T09:20:41;54.97;;;51.97;;
11531;SDS011;5822;51.000;5.874;2023-02-15T09:23:08;57.70;;;54.50;;
11531;SDS011;5822;51.000;5.874;2023-02-15T09:25:34;56.30;;;53.20;;
11531;SDS011;5822;51.000;5.874;2023-02-15T09:27:59;45.05;;;42.40;;
11531;SDS011;5822;51.000;5.874;2023-02-15T09:30:25;50.35;;;47.55;;
11531;SDS011;5822;51.000;5.874;2023-02-15T09:32:51;45.75;;;43.15;;
11531;SDS011;5822;51.000;5.874;2023-02-15T09:35:16;41.45;;;39.03;;
11531;SDS011;5822;51.000;5.874;2023-02-15T09:37:42;49.08;;;46.38;;
11531;SDS011;5822;51.000;5.874;2023-02-15T09:40:07;52.15;;;49.35;;
11531;SDS011;5822;51.000;5.874;2023-02-15T09:42:54;52.33;;;49.53;;
11531;SDS011;5822;51.000;5.874;2023-02-15T09:51:10;68.93;;;65.33;;
11531;SDS011;5822;51.000;5.874;2023-02-15T09:54:09;65.90;;;62.30;;
11531;SDS011;5822;51.000;5.874;2023-02-15T09:56:57;59.05;;;55.95;;
11531;SDS011;5822;51.000;5.874;2023-02-15T10:02:50;43.78;;;41.35;;
11531;SDS011;5822;51.000;5.874;2023-02-15T10:11:36;45.65;;;43.05;;
11531;SDS011;5822;51.000;5.874;2023-02-15T10:21:04;41.35;;;38.95;;
11531;SDS011;5822;51.000;5.874;2023-02-15T10:28:26;51.60;;;48.88;;
11531;SDS011;5822;51.000;5.874;2023-02-15T10:31:25;52.78;;;49.88;;
11531;SDS011;5822;51.000;5.874;2023-02-15T10:39:20;50.97;;;48.28;;
11531;SDS011;5822;51.000;5.874;2023-02-15T10:42:03;51.60;;;48.80;;
11531;SDS011;5822;51.000;5.874;2023-02-15T10:50:41;45.58;;;43.08;;
11531;SDS011;5822;51.000;5.874;2023-02-15T10:56:29;45.00;;;42.55;;
11531;SDS011;5822;51.000;5.874;2023-02-15T11:08:21;40.00;;;37.80;;
11531;SDS011;5822;51.000;5.874;2023-02-15T11:10:57;41.03;;;38.63;;
11531;SDS011;5822;51.000;5.874;2023-02-15T11:13:27;34.58;;;32.38;;
11531;SDS011;5822;51.000;5.874;2023-02-15T11:18:37;33.65;;;31.52;;
11531;SDS011;5822;51.000;5.874;2023-02-15T11:21:22;30.90;;;28.90;;
11531;SDS011;5822;51.000;5.874;2023-02-15T11:24:13;37.60;;;35.20;;
11531;SDS011;5822;51.000;5.874;2023-02-15T11:31:56;38.33;;;36.03;;
11531;SDS011;5822;51.000;5.874;2023-02-15T11:34:32;39.28;;;36.88;;
11531;SDS011;5822;51.000;5.874;2023-02-15T11:37:04;38.05;;;35.75;;
11531;SDS011;5822;51.000;5.874;2023-02-15T11:39:35;34.10;;;31.80;;
11531;SDS011;5822;51.000;5.874;2023-02-15T11:42:09;32.20;;;30.10;;
11531;SDS011;5822;51.000;5.874;2023-02-15T11:47:44;37.95;;;35.55;;
11531;SDS011;5822;51.000;5.874;2023-02-15T11:50:31;38.27;;;35.73;;
11531;SDS011;5822;51.000;5.874;2023-02-15T11:53:14;35.03;;;32.83;;
11531;SDS011;5822;51.000;5.874;2023-02-15T11:55:43;29.45;;;27.35;;
11531;SDS011;5822;51.000;5.874;2023-02-15T12:04:30;30.33;;;28.27;;
11531;SDS011;5822;51.000;5.874;2023-02-15T12:07:02;28.58;;;26.73;;
11531;SDS011;5822;51.000;5.874;2023-02-15T12:12:32;26.88;;;25.08;;
11531;SDS011;5822;51.000;5.874;2023-02-15T12:15:17;28.27;;;26.17;;
11531;SDS011;5822;51.000;5.874;2023-02-15T12:17:55;26.90;;;25.00;;
11531;SDS011;5822;51.000;5.874;2023-02-15T12:25:43;26.07;;;24.27;;
11531;SDS011;5822;51.000;5.874;2023-02-15T12:28:24;26.15;;;24.40;;
11531;SDS011;5822;51.000;5.874;2023-02-15T12:30:56;26.63;;;24.83;;
11531;SDS011;5822;51.000;5.874;2023-02-15T12:33:27;26.10;;;24.38;;
11531;SDS011;5822;51.000;5.874;2023-02-15T12:38:33;29.90;;;28.00;;
11531;SDS011;5822;51.000;5.874;2023-02-15T12:41:21;29.05;;;27.23;;
11531;SDS011;5822;51.000;5.874;2023-02-15T12:44:35;26.67;;;24.88;;
11531;SDS011;5822;51.000;5.874;2023-02-15T12:47:17;26.75;;;24.95;;
11531;SDS011;5822;51.000;5.874;2023-02-15T12:52:51;24.03;;;22.43;;
11531;SDS011;5822;51.000;5.874;2023-02-15T12:55:30;24.63;;;22.92;;
11531;SDS011;5822;51.000;5.874;2023-02-15T12:58:05;24.30;;;22.60;;
11531;SDS011;5822;51.000;5.874;2023-02-15T13:00:41;24.27;;;22.58;;
11531;SDS011;5822;51.000;5.874;2023-02-15T13:03:14;23.30;;;21.70;;
11531;SDS011;5822;51.000;5.874;2023-02-15T13:05:43;23.17;;;21.67;;
11531;SDS011;5822;51.000;5.874;2023-02-15T13:08:15;24.05;;;22.42;;
11531;SDS011;5822;51.000;5.874;2023-02-15T13:10:59;23.80;;;22.20;;
11531;SDS011;5822;51.000;5.874;2023-02-15T13:13:26;23.50;;;21.80;;
11531;SDS011;5822;51.000;5.874;2023-02-15T13:15:58;25.40;;;23.60;;
11531;SDS011;5822;51.000;5.874;2023-02-15T13:18:31;23.43;;;21.83;;
11531;SDS011;5822;51.000;5.874;2023-02-15T13:21:06;25.30;;;23.50;;
11531;SDS011;5822;51.000;5.874;2023-02-15T13:23:36;23.23;;;21.73;;
11531;SDS011;5822;51.000;5.874;2023-02-15T13:26:04;23.83;;;22.15;;
11531;SDS011;5822;51.000;5.874;2023-02-15T13:28:42;23.10;;;21.50;;
11531;SDS011;5822;51.000;5.874;2023-02-15T13:31:18;22.45;;;20.95;;
11531;SDS011;5822;51.000;5.874;2023-02-15T13:33:55;23.10;;;21.50;;
11531;SDS011;5822;51.000;5.874;2023-02-15T13:36:27;23.48;;;21.88;;
11531;SDS011;5822;51.000;5.874;2023-02-15T13:42:25;23.13;;;21.52;;
11531;SDS011;5822;51.000;5.874;2023-02-15T13:53:55;24.90;;;23.20;;
11531;SDS011;5822;51.000;5.874;2023-02-15T14:01:58;24.63;;;22.83;;
11531;SDS011;5822;51.000;5.874;2023-02-15T14:04:55;23.95;;;22.25;;
11531;SDS011;5822;51.000;5.874;2023-02-15T14:07:49;24.00;;;22.40;;
11531;SDS011;5822;51.000;5.874;2023-02-15T14:21:40;22.87;;;21.37;;
11531;SDS011;5822;51.000;5.874;2023-02-15T14:27:12;24.00;;;22.40;;
11531;SDS011;5822;51.000;5.874;2023-02-15T14:29:57;24.57;;;22.93;;
11531;SDS011;5822;51.000;5.874;2023-02-15T14:32:34;22.63;;;21.13;;
11531;SDS011;5822;51.000;5.874;2023-02-15T14:35:04;23.20;;;21.60;;
11531;SDS011;5822;51.000;5.874;2023-02-15T14:40:08;27.90;;;25.83;;
11531;SDS011;5822;51.000;5.874;2023-02-15T14:46:03;23.53;;;21.93;;
11531;SDS011;5822;51.000;5.874;2023-02-15T14:48:36;23.42;;;21.83;;
11531;SDS011;5822;51.000;5.874;2023-02-15T14:51:10;23.65;;;22.05;;
11531;SDS011;5822;51.000;5.874;2023-02-15T14:53:50;24.75;;;23.05;;
11531;SDS011;5822;51.000;5.874;2023-02-15T14:56:22;23.87;;;22.27;;
11531;SDS011;5822;51.000;5.874;2023-02-15T15:01:27;22.95;;;21.35;;
11531;SDS011;5822;51.000;5.874;2023-02-15T15:04:02;23.27;;;21.67;;
11531;SDS011;5822;51.000;5.874;2023-02-15T15:06:39;22.63;;;21.13;;
11531;SDS011;5822;51.000;5.874;2023-02-15T15:11:51;23.90;;;22.33;;
11531;SDS011;5822;51.000;5.874;2023-02-15T15:16:56;22.20;;;20.70;;
11531;SDS011;5822;51.000;5.874;2023-02-15T15:22:17;23.60;;;22.00;;
11531;SDS011;5822;51.000;5.874;2023-02-15T15:49:15;24.67;;;22.98;;
11531;SDS011;5822;51.000;5.874;2023-02-15T15:51:44;24.70;;;23.00;;
11531;SDS011;5822;51.000;5.874;2023-02-15T15:54:23;25.05;;;23.35;;
11531;SDS011;5822;51.000;5.874;2023-02-15T15:56:55;23.88;;;22.27;;
11531;SDS011;5822;51.000;5.874;2023-02-15T15:59:26;23.90;;;22.30;;
11531;SDS011;5822;51.000;5.874;2023-02-15T16:01:54;23.48;;;21.98;;
11531;SDS011;5822;51.000;5.874;2023-02-15T16:04:25;21.60;;;20.20;;
11531;SDS011;5822;51.000;5.874;2023-02-15T16:07:14;23.10;;;21.50;;
11531;SDS011;5822;51.000;5.874;2023-02-15T16:12:22;24.20;;;22.50;;
11531;SDS011;5822;51.000;5.874;2023-02-15T16:14:49;24.58;;;22.88;;
11531;SDS011;5822;51.000;5.874;2023-02-15T16:17:19;23.80;;;22.20;;
11531;SDS011;5822;51.000;5.874;2023-02-15T16:19:48;22.77;;;21.17;;
11531;SDS011;5822;51.000;5.874;2023-02-15T16:22:18;23.27;;;21.58;;
11531;SDS011;5822;51.000;5.874;2023-02-15T16:29:52;27.10;;;25.10;;
11531;SDS011;5822;51.000;5.874;2023-02-15T16:32:25;25.52;;;23.73;;
11531;SDS011;5822;51.000;5.874;2023-02-15T16:34:54;23.10;;;21.40;;
11531;SDS011;5822;51.000;5.874;2023-02-15T16:37:25;23.30;;;21.60;;
11531;SDS011;5822;51.000;5.874;2023-02-15T16:39:56;22.98;;;21.38;;
11531;SDS011;5822;51.000;5.874;2023-02-15T16:42:22;23.88;;;22.17;;
11531;SDS011;5822;51.000;5.874;2023-02-15T16:44:54;25.03;;;23.23;;
11531;SDS011;5822;51.000;5.874;2023-02-15T16:47:22;24.10;;;22.50;;
11531;SDS011;5822;51.000;5.874;2023-02-15T16:49:51;25.27;;;23.50;;
11531;SDS011;5822;51.000;5.874;2023-02-15T16:52:20;24.40;;;22.80;;
11531;SDS011;5822;51.000;5.874;2023-02-15T16:54:53;23.42;;;21.83;;
11531;SDS011;5822;51.000;5.874;2023-02-15T16:57:22;23.60;;;21.90;;
11531;SDS011;5822;51.000;5.874;2023-02-15T16:59:51;23.17;;;21.58;;
11531;SDS011;5822;51.000;5.874;2023-02-15T17:02:20;24.35;;;22.65;;
11531;SDS011;5822;51.000;5.874;2023-02-15T17:07:39;26.13;;;24.23;;
11531;SDS011;5822;51.000;5.874;2023-02-15T17:10:28;25.25;;;23.45;;
11531;SDS011;5822;51.000;5.874;2023-02-15T17:13:03;25.67;;;23.77;;
11531;SDS011;5822;51.000;5.874;2023-02-15T17:15:35;24.58;;;22.77;;
11531;SDS011;5822;51.000;5.874;2023-02-15T17:18:08;24.33;;;22.52;;
11531;SDS011;5822;51.000;5.874;2023-02-15T17:20:39;24.63;;;22.88;;
11531;SDS011;5822;51.000;5.874;2023-02-15T17:23:15;24.90;;;23.10;;
11531;SDS011;5822;51.000;5.874;2023-02-15T17:25:57;27.48;;;25.67;;
11531;SDS011;5822;51.000;5.874;2023-02-15T17:28:26;27.00;;;25.20;;
11531;SDS011;5822;51.000;5.874;2023-02-15T17:30:54;27.05;;;25.25;;
11531;SDS011;5822;51.000;5.874;2023-02-15T17:33:23;27.17;;;25.30;;
11531;SDS011;5822;51.000;5.874;2023-02-15T17:38:28;26.30;;;24.50;;
11531;SDS011;5822;51.000;5.874;2023-02-15T17:40:53;26.88;;;25.00;;
11531;SDS011;5822;51.000;5.874;2023-02-15T17:43:19;27.80;;;25.85;;
11531;SDS011;5822;51.000;5.874;2023-02-15T17:45:48;25.20;;;23.40;;
11531;SDS011;5822;51.000;5.874;2023-02-15T17:48:22;25.05;;;23.25;;
11531;SDS011;5822;51.000;5.874;2023-02-15T17:51:06;24.63;;;22.83;;
11531;SDS011;5822;51.000;5.874;2023-02-15T17:53:37;25.60;;;23.80;;
11531;SDS011;5822;51.000;5.874;2023-02-15T17:56:03;26.80;;;24.90;;
11531;SDS011;5822;51.000;5.874;2023-02-15T17:58:34;28.70;;;26.67;;
11531;SDS011;5822;51.000;5.874;2023-02-15T18:01:04;27.50;;;25.60;;
11531;SDS011;5822;51.000;5.874;2023-02-15T18:03:51;26.80;;;25.00;;
11531;SDS011;5822;51.000;5.874;2023-02-15T18:06:36;25.08;;;23.38;;
11531;SDS011;5822;51.000;5.874;2023-02-15T18:09:22;24.60;;;22.90;;
11531;SDS011;5822;51.000;5.874;2023-02-15T18:14:44;25.75;;;23.95;;
11531;SDS011;5822;51.000;5.874;2023-02-15T18:17:10;25.95;;;24.15;;
11531;SDS011;5822;51.000;5.874;2023-02-15T18:19:40;27.20;;;25.30;;
11531;SDS011;5822;51.000;5.874;2023-02-15T18:22:11;27.23;;;25.33;;
11531;SDS011;5822;51.000;5.874;2023-02-15T18:24:42;29.90;;;27.80;;
11531;SDS011;5822;51.000;5.874;2023-02-15T18:27:11;28.98;;;26.98;;
11531;SDS011;5822;51.000;5.874;2023-02-15T18:29:37;28.27;;;26.33;;
11531;SDS011;5822;51.000;5.874;2023-02-15T18:32:05;30.20;;;28.05;;